Olne, Belgium
Current Conditions -  °F | °C
As of 10:50 PM on Thursday 27 Nov 2014 (Local Time) from EBLG Reporting Station
Broken Clouds Broken Clouds  
Wind Chill: 43°   Ceiling: 1100
Heat Index: 48°   Visibility: 6mi
Dew Point: 45°   Wind: 12mph
Humidity: 87%   Direction: 150°SSE
Pressure: 29.68"   Gusts: NA
Location:  50.59°N, 5.75°E
Report Text: EBLG 272150Z 15010KT 9999 BKN011 BKN035 09/07 Q1005 NOSIG
Loading
Personal Weather Stations






























Interactive Weather Map New forecast layout! Learn more

10-Day Weather Forecast

Advertisements
Track Severe Weather on mobile